createdAt,value
2017-10-06T00:00:52.293Z,96.46
2017-10-06T00:01:51.975Z,95.89
2017-10-06T00:02:52.282Z,96.17
2017-10-06T00:03:52.064Z,95.36
2017-10-06T00:04:52.373Z,95.56
2017-10-06T00:05:52.054Z,95.65
2017-10-06T00:06:52.259Z,96.42
2017-10-06T00:07:51.941Z,96.42
2017-10-06T00:08:51.936Z,95.84
2017-10-06T00:09:52.343Z,95.56
2017-10-06T00:10:52.385Z,95.56
2017-10-06T00:11:51.921Z,95.75
2017-10-06T00:12:52.224Z,95.75
2017-10-06T00:13:51.907Z,94.98
2017-10-06T00:14:52.214Z,95.84
2017-10-06T00:15:52.047Z,95.75
2017-10-06T00:16:52.201Z,95.46
2017-10-06T00:17:52.199Z,95.56
2017-10-06T00:18:52.190Z,95.56
2017-10-06T00:19:52.185Z,95.65
2017-10-06T00:20:52.016Z,95.56
2017-10-06T00:21:52.171Z,95.56
2017-10-06T00:22:51.855Z,95.36
2017-10-06T00:23:51.850Z,95.75
2017-10-06T00:24:51.944Z,95.46
2017-10-06T00:25:51.838Z,95.65
2017-10-06T00:26:52.143Z,95.46
2017-10-06T00:27:52.139Z,95.79
2017-10-06T00:28:51.819Z,95.7
2017-10-06T00:29:52.124Z,95.12
2017-10-06T00:30:51.810Z,94.84
2017-10-06T00:31:51.806Z,95.12
2017-10-06T00:32:52.259Z,95.12
2017-10-06T00:33:51.790Z,95.32
2017-10-06T00:34:52.100Z,94.93
2017-10-06T00:35:52.092Z,95.12
2017-10-06T00:36:52.087Z,94.93
2017-10-06T00:37:52.179Z,94.93
2017-10-06T00:38:51.763Z,95.12
2017-10-06T00:39:51.758Z,95.32
2017-10-06T00:40:52.062Z,95.12
2017-10-06T00:41:52.057Z,95.32
2017-10-06T00:42:52.053Z,95.12
2017-10-06T00:43:52.051Z,95.03
2017-10-06T00:44:51.726Z,95.32
2017-10-06T00:45:51.721Z,95.12
2017-10-06T00:46:51.734Z,95.12
2017-10-06T00:47:52.020Z,95.22
2017-10-06T00:48:51.810Z,95.12
2017-10-06T00:49:52.012Z,94.56
2017-10-06T00:50:51.793Z,94.46
2017-10-06T00:51:52.149Z,95.32
2017-10-06T00:52:51.994Z,95.22
2017-10-06T00:53:51.826Z,95.03
2017-10-06T00:54:51.979Z,95.32
2017-10-06T00:55:51.974Z,95.03
2017-10-06T00:56:51.969Z,94.74
2017-10-06T00:57:51.966Z,95.22
2017-10-06T00:58:51.795Z,95.32
2017-10-06T00:59:51.790Z,95.17
2017-10-06T01:00:51.634Z,95.17
2017-10-06T01:01:51.946Z,95.46
2017-10-06T01:02:51.934Z,95.17
2017-10-06T01:03:51.768Z,95.17
2017-10-06T01:04:51.612Z,95.17
2017-10-06T01:05:51.919Z,94.98
2017-10-06T01:06:52.011Z,95.08
2017-10-06T01:07:51.596Z,95.32
2017-10-06T01:08:51.904Z,95.12
2017-10-06T01:09:51.900Z,95.03
2017-10-06T01:10:51.578Z,95.51
2017-10-06T01:11:51.571Z,95.41
2017-10-06T01:12:51.667Z,94.84
2017-10-06T01:13:51.560Z,95.03
2017-10-06T01:14:51.803Z,95.12
2017-10-06T01:15:51.549Z,95.12
2017-10-06T01:16:51.542Z,95.03
2017-10-06T01:17:51.853Z,95.32
2017-10-06T01:18:51.942Z,94.93
2017-10-06T01:19:51.626Z,94.84
2017-10-06T01:20:51.830Z,95.89
2017-10-06T01:21:51.514Z,95.41
2017-10-06T01:22:51.818Z,95.7
2017-10-06T01:23:51.501Z,95.61
2017-10-06T01:24:51.807Z,95.61
2017-10-06T01:25:51.801Z,95.51
2017-10-06T01:26:51.484Z,95.32
2017-10-06T01:27:51.479Z,95.12
2017-10-06T01:28:51.572Z,95.12
2017-10-06T01:29:51.467Z,95.22
2017-10-06T01:30:51.774Z,95.03
2017-10-06T01:31:51.767Z,95.51
2017-10-06T01:32:51.762Z,95.12
2017-10-06T01:33:51.445Z,95.03
2017-10-06T01:34:51.437Z,95.12
2017-10-06T01:35:51.432Z,95.12
2017-10-06T01:36:51.738Z,95.32
2017-10-06T01:37:51.421Z,94.93
2017-10-06T01:38:51.413Z,95.12
2017-10-06T01:39:51.410Z,94.84
2017-10-06T01:40:51.716Z,94.17
2017-10-06T01:41:51.708Z,94.84
2017-10-06T01:42:51.804Z,95.03
2017-10-06T01:43:51.699Z,95.03
2017-10-06T01:44:51.691Z,95.12
2017-10-06T01:45:51.372Z,95.12
2017-10-06T01:46:51.680Z,95.12
2017-10-06T01:47:51.461Z,94.46
2017-10-06T01:48:51.668Z,94.93
2017-10-06T01:49:51.349Z,95.32
2017-10-06T01:50:51.653Z,95.03
2017-10-06T01:51:51.339Z,95.12
2017-10-06T01:52:51.431Z,95.22
2017-10-06T01:53:51.327Z,95.12
2017-10-06T01:54:51.633Z,95.7
2017-10-06T01:55:51.629Z,94.93
2017-10-06T01:56:51.620Z,95.12
2017-10-06T01:57:51.303Z,95.12
2017-10-06T01:58:51.610Z,94.93
2017-10-06T01:59:51.603Z,94.93
2017-10-06T02:00:51.284Z,94.93
2017-10-06T02:01:51.592Z,94.93
2017-10-06T02:02:51.273Z,94.93
2017-10-06T02:03:51.581Z,94.74
2017-10-06T02:04:51.723Z,95.7
2017-10-06T02:05:51.567Z,95.79
2017-10-06T02:06:51.349Z,95.08
2017-10-06T02:07:51.556Z,95.08
2017-10-06T02:08:51.238Z,96.41
2017-10-06T02:09:51.232Z,95.65
2017-10-06T02:10:51.639Z,95.46
2017-10-06T02:11:51.321Z,95.46
2017-10-06T02:12:51.528Z,95.46
2017-10-06T02:13:51.523Z,95.37
2017-10-06T02:14:51.515Z,95.56
2017-10-06T02:15:51.666Z,96.13
2017-10-06T02:16:51.192Z,96.03
2017-10-06T02:17:51.184Z,96.8
2017-10-06T02:18:51.491Z,96.89
2017-10-06T02:19:51.179Z,96.41
2017-10-06T02:20:51.268Z,96.7
2017-10-06T02:21:51.474Z,96.27
2017-10-06T02:22:51.469Z,96.37
2017-10-06T02:23:51.462Z,96.27
2017-10-06T02:24:51.458Z,96.37
2017-10-06T02:25:51.452Z,96.46
2017-10-06T02:26:51.444Z,96.17
2017-10-06T02:27:51.128Z,96.17
2017-10-06T02:28:51.121Z,96.66
2017-10-06T02:29:51.433Z,95.41
2017-10-06T02:30:51.209Z,95.98
2017-10-06T02:31:51.415Z,95.79
2017-10-06T02:32:51.409Z,95.98
2017-10-06T02:33:51.090Z,95.7
2017-10-06T02:34:51.397Z,95.89
2017-10-06T02:35:51.493Z,95.51
2017-10-06T02:36:51.589Z,95.61
2017-10-06T02:37:51.076Z,95.61
2017-10-06T02:38:51.373Z,95.61
2017-10-06T02:39:51.058Z,95.51
2017-10-06T02:40:51.362Z,95.61
2017-10-06T02:41:51.146Z,95.51
2017-10-06T02:42:51.352Z,95.61
2017-10-06T02:43:51.041Z,95.51
2017-10-06T02:44:51.027Z,95.32
2017-10-06T02:45:51.019Z,95.12
2017-10-06T02:46:51.015Z,95.89
2017-10-06T02:47:51.323Z,95.79
2017-10-06T02:48:51.316Z,95.51
2017-10-06T02:49:50.999Z,96.37
2017-10-06T02:50:51.408Z,96.17
2017-10-06T02:51:51.320Z,95.7
2017-10-06T02:52:51.291Z,95.89
2017-10-06T02:53:51.288Z,95.12
2017-10-06T02:54:51.280Z,95.61
2017-10-06T02:55:50.963Z,95.79
2017-10-06T02:56:51.270Z,95.32
2017-10-06T02:57:51.262Z,95.51
2017-10-06T02:58:51.044Z,95.61
2017-10-06T02:59:51.251Z,95.51
2017-10-06T03:00:51.245Z,95.41
2017-10-06T03:01:51.238Z,95.41
2017-10-06T03:02:51.330Z,95.32
2017-10-06T03:03:50.915Z,95.41
2017-10-06T03:04:51.217Z,95.79
2017-10-06T03:05:50.903Z,95.89
2017-10-06T03:06:50.997Z,95.61
2017-10-06T03:07:51.203Z,95.41
2017-10-06T03:08:50.885Z,95.32
2017-10-06T03:09:51.029Z,95.7
2017-10-06T03:10:51.185Z,94.93
2017-10-06T03:11:51.178Z,95.12
2017-10-06T03:12:51.173Z,94.36
2017-10-06T03:13:51.165Z,95.37
2017-10-06T03:14:51.161Z,95.17
2017-10-06T03:15:51.157Z,94.79
2017-10-06T03:16:51.149Z,95.65
2017-10-06T03:17:51.146Z,95.65
2017-10-06T03:18:51.136Z,95.56
2017-10-06T03:19:50.819Z,95.75
2017-10-06T03:20:50.813Z,96.13
2017-10-06T03:21:50.807Z,95.84
2017-10-06T03:22:51.113Z,96.41
2017-10-06T03:23:51.106Z,96.03
2017-10-06T03:24:51.100Z,96.22
2017-10-06T03:25:50.932Z,95.65
2017-10-06T03:26:50.777Z,95.27
2017-10-06T03:27:50.771Z,95.56
2017-10-06T03:28:50.765Z,95.37
2017-10-06T03:29:51.008Z,95.41
2017-10-06T03:30:51.068Z,96.13
2017-10-06T03:31:50.747Z,96.32
2017-10-06T03:32:50.741Z,96.13
2017-10-06T03:33:51.047Z,96.32
2017-10-06T03:34:51.142Z,96.32
2017-10-06T03:35:50.722Z,96.51
2017-10-06T03:36:50.718Z,96.13
2017-10-06T03:37:50.812Z,96.32
2017-10-06T03:38:50.705Z,96.22
2017-10-06T03:39:51.009Z,95.75
2017-10-06T03:40:50.694Z,95.56
2017-10-06T03:41:51.002Z,95.46
2017-10-06T03:42:50.681Z,95.27
2017-10-06T03:43:50.985Z,95.37
2017-10-06T03:44:50.981Z,95.75
2017-10-06T03:45:51.075Z,95.37
2017-10-06T03:46:50.971Z,95.75
2017-10-06T03:47:50.652Z,95.75
2017-10-06T03:48:50.960Z,95.84
2017-10-06T03:49:50.952Z,94.98
2017-10-06T03:50:50.950Z,95.08
2017-10-06T03:51:50.942Z,94.89
2017-10-06T03:52:50.933Z,95.65
2017-10-06T03:53:50.616Z,95.56
2017-10-06T03:54:50.611Z,95.65
2017-10-06T03:55:50.703Z,95.65
2017-10-06T03:56:51.009Z,95.27
2017-10-06T03:57:50.903Z,95.37
2017-10-06T03:58:50.899Z,95.56
2017-10-06T03:59:50.891Z,95.37
2017-10-06T04:00:50.575Z,95.37
2017-10-06T04:01:50.897Z,95.37
2017-10-06T04:02:50.874Z,94.79
2017-10-06T04:03:50.657Z,95.46
2017-10-06T04:04:50.863Z,94.89
2017-10-06T04:05:50.546Z,94.98
2017-10-06T04:06:50.849Z,94.79
2017-10-06T04:07:50.846Z,95.08
2017-10-06T04:08:50.626Z,94.98
2017-10-06T04:09:50.521Z,95.17
2017-10-06T04:10:50.929Z,95.08
2017-10-06T04:11:50.922Z,95.37
2017-10-06T04:12:50.501Z,95.27
2017-10-06T04:13:50.496Z,95.27
2017-10-06T04:14:50.591Z,95.27
2017-10-06T04:15:50.796Z,95.08
2017-10-06T04:16:50.890Z,95.17
2017-10-06T04:17:50.784Z,94.98
2017-10-06T04:18:50.785Z,94.03
2017-10-06T04:19:50.922Z,95.27
2017-10-06T04:20:50.766Z,95.08
2017-10-06T04:21:50.551Z,94.89
2017-10-06T04:22:50.758Z,95.65
2017-10-06T04:23:50.747Z,95.37
2017-10-06T04:24:50.538Z,95.17
2017-10-06T04:25:50.736Z,95.65
2017-10-06T04:26:50.417Z,95.27
2017-10-06T04:27:50.512Z,95.32
2017-10-06T04:28:50.719Z,95.61
2017-10-06T04:29:50.712Z,95.41
2017-10-06T04:30:50.394Z,96.27
2017-10-06T04:31:50.799Z,96.13
2017-10-06T04:32:50.483Z,96.56
2017-10-06T04:33:50.375Z,96.27
2017-10-06T04:34:50.369Z,95.98
2017-10-06T04:35:50.489Z,96.08
2017-10-06T04:36:50.359Z,96.08
2017-10-06T04:37:50.351Z,95.89
2017-10-06T04:38:50.346Z,96.84
2017-10-06T04:39:50.340Z,96.27
2017-10-06T04:40:50.645Z,96.27
2017-10-06T04:41:50.329Z,96.56
2017-10-06T04:42:50.320Z,96.36
2017-10-06T04:43:50.337Z,96.65
2017-10-06T04:44:50.308Z,96.46
2017-10-06T04:45:50.303Z,96.65
2017-10-06T04:46:50.297Z,96.65
2017-10-06T04:47:50.292Z,96.36
2017-10-06T04:48:50.700Z,96.46
2017-10-06T04:49:50.602Z,96.84
2017-10-06T04:50:50.585Z,96.56
2017-10-06T04:51:50.678Z,96.65
2017-10-06T04:52:50.579Z,97.22
2017-10-06T04:53:50.570Z,97.22
2017-10-06T04:54:50.250Z,96.84
2017-10-06T04:55:50.341Z,96.65
2017-10-06T04:56:50.235Z,96.65
2017-10-06T04:57:50.544Z,96.75
2017-10-06T04:58:50.535Z,96.27
2017-10-06T04:59:50.219Z,96.36
2017-10-06T05:00:50.524Z,96.75
2017-10-06T05:01:50.205Z,96.36
2017-10-06T05:02:50.614Z,96.27
2017-10-06T05:03:50.507Z,96.36
2017-10-06T05:04:50.388Z,96.46
2017-10-06T05:05:50.180Z,96.56
2017-10-06T05:06:50.176Z,96.56
2017-10-06T05:07:50.482Z,96.84
2017-10-06T05:08:50.477Z,96.46
2017-10-06T05:09:50.621Z,96.65
2017-10-06T05:10:50.255Z,96.75
2017-10-06T05:11:50.145Z,95.98
2017-10-06T05:12:50.140Z,95.79
2017-10-06T05:13:50.134Z,95.51
2017-10-06T05:14:50.126Z,96.08
2017-10-06T05:15:50.220Z,96.08
2017-10-06T05:16:50.116Z,96.27
2017-10-06T05:17:50.449Z,95.41
2017-10-06T05:18:50.418Z,95.61
2017-10-06T05:19:50.412Z,95.51
2017-10-06T05:20:50.403Z,95.51
2017-10-06T05:21:50.233Z,95.41
2017-10-06T05:22:50.079Z,95.32
2017-10-06T05:23:50.384Z,95.27
2017-10-06T05:24:50.066Z,95.46
2017-10-06T05:25:50.370Z,95.65
2017-10-06T05:26:50.055Z,95.56
2017-10-06T05:27:50.048Z,95.56
2017-10-06T05:28:50.354Z,95.36
2017-10-06T05:29:50.378Z,95.56
2017-10-06T05:30:50.342Z,95.65
2017-10-06T05:31:50.436Z,95.84
2017-10-06T05:32:50.118Z,95.94
2017-10-06T05:33:50.110Z,96.22
2017-10-06T05:34:50.318Z,95.94
2017-10-06T05:35:50.312Z,96.12
2017-10-06T05:36:49.991Z,96.12
2017-10-06T05:37:50.299Z,96.12
2017-10-06T05:38:50.292Z,95.94
2017-10-06T05:39:50.386Z,96.03
2017-10-06T05:40:50.281Z,95.94
2017-10-06T05:41:50.273Z,96.03
2017-10-06T05:42:49.956Z,96.32
2017-10-06T05:43:50.362Z,96.03
2017-10-06T05:44:49.942Z,95.65
2017-10-06T05:45:49.938Z,95.27
2017-10-06T05:46:50.249Z,95.56
2017-10-06T05:47:50.338Z,95.17
2017-10-06T05:48:50.020Z,95.17
2017-10-06T05:49:49.914Z,95.65
2017-10-06T05:50:50.220Z,95.36
2017-10-06T05:51:50.217Z,95.36
2017-10-06T05:52:49.894Z,94.7
2017-10-06T05:53:50.301Z,94.79
2017-10-06T05:54:50.201Z,95.27
2017-10-06T05:55:50.288Z,94.7
2017-10-06T05:56:49.870Z,94.7
2017-10-06T05:57:50.176Z,94.41
2017-10-06T05:58:50.170Z,94.51
2017-10-06T05:59:50.158Z,94.03
2017-10-06T06:00:50.253Z,94.51
2017-10-06T06:01:49.835Z,94.32
2017-10-06T06:02:50.137Z,94.51
2017-10-06T06:03:49.923Z,94.65
2017-10-06T06:04:49.817Z,94.46
2017-10-06T06:05:49.810Z,94.56
2017-10-06T06:06:50.123Z,94.56
2017-10-06T06:07:49.797Z,94.46
2017-10-06T06:08:49.792Z,93.98
2017-10-06T06:09:50.296Z,94.17
2017-10-06T06:10:50.116Z,93.89
2017-10-06T06:11:49.774Z,94.56
2017-10-06T06:12:49.767Z,93.89
2017-10-06T06:13:50.077Z,94.27
2017-10-06T06:14:49.757Z,93.89
2017-10-06T06:15:49.949Z,94.27
2017-10-06T06:16:49.744Z,94.46
2017-10-06T06:17:49.736Z,94.27
2017-10-06T06:18:50.039Z,94.27
2017-10-06T06:19:50.034Z,94.37
2017-10-06T06:20:50.029Z,94.37
2017-10-06T06:21:50.022Z,93.98
2017-10-06T06:22:49.706Z,94.08
2017-10-06T06:23:50.009Z,94.46
2017-10-06T06:24:50.038Z,94.22
2017-10-06T06:25:49.996Z,94.22
2017-10-06T06:26:49.992Z,93.74
2017-10-06T06:27:49.985Z,94.03
2017-10-06T06:28:49.669Z,94.03
2017-10-06T06:29:49.663Z,93.65
2017-10-06T06:30:49.656Z,93.46
2017-10-06T06:31:49.960Z,93.55
2017-10-06T06:32:49.953Z,93.17
2017-10-06T06:33:49.638Z,93.17
2017-10-06T06:34:50.043Z,93.17
2017-10-06T06:35:49.725Z,92.5
2017-10-06T06:36:50.081Z,92.32
2017-10-06T06:37:49.617Z,92.13
2017-10-06T06:38:49.921Z,92.13
2017-10-06T06:39:49.605Z,92.32
2017-10-06T06:40:49.598Z,92.5
2017-10-06T06:41:49.592Z,93.46
2017-10-06T06:42:49.897Z,93.37
2017-10-06T06:43:49.891Z,92.98
2017-10-06T06:44:49.885Z,92.69
2017-10-06T06:45:49.978Z,92.5
2017-10-06T06:46:50.024Z,92.41
2017-10-06T06:47:49.867Z,92.69
2017-10-06T06:48:49.861Z,93.27
2017-10-06T06:49:49.643Z,92.6
2017-10-06T06:50:49.637Z,92.32
2017-10-06T06:51:49.631Z,92.13
2017-10-06T06:52:49.524Z,92.22
2017-10-06T06:53:49.517Z,91.94
2017-10-06T06:54:49.514Z,91.98
2017-10-06T06:55:49.606Z,91.98
2017-10-06T06:56:49.499Z,91.41
2017-10-06T06:57:49.805Z,92.17
2017-10-06T06:58:49.900Z,92.27
2017-10-06T06:59:49.792Z,91.88
2017-10-06T07:00:49.675Z,91.13
2017-10-06T07:01:49.781Z,91.31
2017-10-06T07:02:49.775Z,91.41
2017-10-06T07:03:49.557Z,90.64
2017-10-06T07:04:49.451Z,90.89
2017-10-06T07:05:49.858Z,91.13
2017-10-06T07:06:49.440Z,91.41
2017-10-06T07:07:49.743Z,91.41
2017-10-06T07:08:49.737Z,91.5
2017-10-06T07:09:49.733Z,92.17
2017-10-06T07:10:49.731Z,92.17
2017-10-06T07:11:49.720Z,92.08
2017-10-06T07:12:49.401Z,92.17
2017-10-06T07:13:49.808Z,92.17
2017-10-06T07:14:49.701Z,91.79
2017-10-06T07:15:49.694Z,92.08
2017-10-06T07:16:49.378Z,92.08
2017-10-06T07:17:49.682Z,92.27
2017-10-06T07:18:49.677Z,91.88
2017-10-06T07:19:49.359Z,92.17
2017-10-06T07:20:49.353Z,91.41
2017-10-06T07:21:49.348Z,91.88
2017-10-06T07:22:49.342Z,91.6
2017-10-06T07:23:49.336Z,91.6
2017-10-06T07:24:49.329Z,91.31
2017-10-06T07:25:49.327Z,91.31
2017-10-06T07:26:49.318Z,91.31
2017-10-06T07:27:49.311Z,91.31
2017-10-06T07:28:49.305Z,91.22
2017-10-06T07:29:49.611Z,91.41
2017-10-06T07:30:49.394Z,91.22
2017-10-06T07:31:49.599Z,91.41
2017-10-06T07:32:49.592Z,91.22
2017-10-06T07:33:49.588Z,91.03
2017-10-06T07:34:49.581Z,90.74
2017-10-06T07:35:49.363Z,90.26
2017-10-06T07:36:49.257Z,90.36
2017-10-06T07:37:49.352Z,90.59
2017-10-06T07:38:49.557Z,90.5
2017-10-06T07:39:49.550Z,90.17
2017-10-06T07:40:49.233Z,90.22
2017-10-06T07:41:49.538Z,89.54
2017-10-06T07:42:49.321Z,89.93
2017-10-06T07:43:49.525Z,89.45
2017-10-06T07:44:49.208Z,88.59
2017-10-06T07:45:49.203Z,88.5
2017-10-06T07:46:49.297Z,88.4
2017-10-06T07:47:49.604Z,89.07
2017-10-06T07:48:49.496Z,88.5
2017-10-06T07:49:49.490Z,88.4
2017-10-06T07:50:49.173Z,87.35
2017-10-06T07:51:49.166Z,86.69
2017-10-06T07:52:49.572Z,85.64
2017-10-06T07:53:49.465Z,85.88
2017-10-06T07:54:49.298Z,85.83
2017-10-06T07:55:49.149Z,85.64
2017-10-06T07:56:49.475Z,85.35
2017-10-06T07:57:49.448Z,85.64
2017-10-06T07:58:49.537Z,84.69
2017-10-06T07:59:49.218Z,83.44
2017-10-06T08:00:49.425Z,84.2
2017-10-06T08:01:49.420Z,84.4
2017-10-06T08:02:49.201Z,83.83
2017-10-06T08:03:49.095Z,83.64
2017-10-06T08:04:49.401Z,82.97
2017-10-06T08:05:49.083Z,83.44
2017-10-06T08:06:49.388Z,83.64
2017-10-06T08:07:49.381Z,82.68
2017-10-06T08:08:49.065Z,83.06
2017-10-06T08:09:49.370Z,82.59
2017-10-06T08:10:49.364Z,80.87
2017-10-06T08:11:49.047Z,79.25
2017-10-06T08:12:49.354Z,79.63
2017-10-06T08:13:49.445Z,79.82
2017-10-06T08:14:49.340Z,78.67
2017-10-06T08:15:49.335Z,78.1
2017-10-06T08:16:49.017Z,77.15
2017-10-06T08:17:49.011Z,76.96
2017-10-06T08:18:49.155Z,77.91
2017-10-06T08:19:49.311Z,77.62
2017-10-06T08:20:49.305Z,77.62
2017-10-06T08:21:48.987Z,77.53
2017-10-06T08:22:49.293Z,77.15
2017-10-06T08:23:49.487Z,77.72
2017-10-06T08:24:49.280Z,77.53
2017-10-06T08:25:48.964Z,76.77
2017-10-06T08:26:49.269Z,76.48
2017-10-06T08:27:49.266Z,75.91
2017-10-06T08:28:48.945Z,75.62
2017-10-06T08:29:49.351Z,75.72
2017-10-06T08:30:49.247Z,75.43
2017-10-06T08:31:49.340Z,75.62
2017-10-06T08:32:48.922Z,74.86
2017-10-06T08:33:48.916Z,74.96
2017-10-06T08:34:49.240Z,74.86
2017-10-06T08:35:48.904Z,74.86
2017-10-06T08:36:49.211Z,75.81
2017-10-06T08:37:48.895Z,75.91
2017-10-06T08:38:48.886Z,76.1
2017-10-06T08:39:49.203Z,75.72
2017-10-06T08:40:49.002Z,75.81
2017-10-06T08:41:48.869Z,75.95
2017-10-06T08:42:48.863Z,76.1
2017-10-06T08:43:49.170Z,76.77
2017-10-06T08:44:49.164Z,77.06
2017-10-06T08:45:49.157Z,77.44
2017-10-06T08:46:49.151Z,77.91
2017-10-06T08:47:48.833Z,78.3
2017-10-06T08:48:48.827Z,78.49
2017-10-06T08:49:48.922Z,78.96
2017-10-06T08:50:49.125Z,79.25
2017-10-06T08:51:49.122Z,79.72
2017-10-06T08:52:48.903Z,80.11
2017-10-06T08:53:49.108Z,79.44
2017-10-06T08:54:48.891Z,79.72
2017-10-06T08:55:48.786Z,79.91
2017-10-06T08:56:49.092Z,79.72
2017-10-06T08:57:49.188Z,80.2
2017-10-06T08:58:49.087Z,79.72
2017-10-06T08:59:48.763Z,80.68
2017-10-06T09:00:48.756Z,80.11
2017-10-06T09:01:49.062Z,80.77
2017-10-06T09:02:49.054Z,80.39
2017-10-06T09:03:49.151Z,80.87
2017-10-06T09:04:49.052Z,80.96
2017-10-06T09:05:49.039Z,81.06
2017-10-06T09:06:48.721Z,80.96
2017-10-06T09:07:48.714Z,80.3
2017-10-06T09:08:49.169Z,80.68
2017-10-06T09:09:48.702Z,80.2
2017-10-06T09:10:49.009Z,80.49
2017-10-06T09:11:48.689Z,81.06
2017-10-06T09:12:48.686Z,80.77
2017-10-06T09:13:48.680Z,80.87
2017-10-06T09:14:49.083Z,80.58
2017-10-06T09:15:48.666Z,80.49
2017-10-06T09:16:48.973Z,79.82
2017-10-06T09:17:48.965Z,78.72
2017-10-06T09:18:48.648Z,78.81
2017-10-06T09:19:49.053Z,79
2017-10-06T09:20:48.949Z,78.2
2017-10-06T09:21:48.946Z,78.1
2017-10-06T09:22:48.774Z,77.62
2017-10-06T09:23:48.930Z,76.67
2017-10-06T09:24:48.952Z,76.01
2017-10-06T09:25:48.923Z,76.1
2017-10-06T09:26:48.600Z,76.01
2017-10-06T09:27:48.906Z,75.34
2017-10-06T09:28:48.898Z,75.53
2017-10-06T09:29:48.732Z,74.77
2017-10-06T09:30:48.576Z,74.38
2017-10-06T09:31:48.881Z,74.38
2017-10-06T09:32:48.875Z,74.67
2017-10-06T09:33:48.758Z,74.57
2017-10-06T09:34:48.552Z,73.72
2017-10-06T09:35:48.546Z,72.67
2017-10-06T09:36:48.541Z,72.96
2017-10-06T09:37:48.533Z,72.57
2017-10-06T09:38:48.728Z,71.72
2017-10-06T09:39:48.522Z,71.62
2017-10-06T09:40:48.615Z,71.81
2017-10-06T09:41:48.824Z,72.19
2017-10-06T09:42:48.847Z,72.28
2017-10-06T09:43:48.808Z,72.57
2017-10-06T09:44:48.491Z,72.57
2017-10-06T09:45:48.635Z,72.48
2017-10-06T09:46:48.790Z,72.67
2017-10-06T09:47:48.473Z,72.96
2017-10-06T09:48:48.777Z,72.96
2017-10-06T09:49:48.971Z,73.72
2017-10-06T09:50:48.454Z,73.33
2017-10-06T09:51:48.758Z,73.81
2017-10-06T09:52:48.542Z,74.38
2017-10-06T09:53:48.852Z,74.57
2017-10-06T09:54:48.429Z,75.05
2017-10-06T09:55:48.733Z,75.15
2017-10-06T09:56:48.416Z,75.53
2017-10-06T09:57:48.722Z,75.53
2017-10-06T09:58:48.505Z,75.62
2017-10-06T09:59:48.549Z,75.43
2017-10-06T10:00:48.853Z,76.29
2017-10-06T10:01:48.698Z,76.57
2017-10-06T10:02:48.380Z,76.67
2017-10-06T10:03:48.473Z,77.06
2017-10-06T10:04:48.367Z,77.25
2017-10-06T10:05:48.374Z,77.34
2017-10-06T10:06:48.668Z,78.3
2017-10-06T10:07:48.349Z,78.3
2017-10-06T10:08:48.660Z,78.1
2017-10-06T10:09:48.649Z,78.49
2017-10-06T10:10:48.641Z,77.82
2017-10-06T10:11:48.324Z,77.34
2017-10-06T10:12:48.730Z,76.67
2017-10-06T10:13:48.310Z,76.29
2017-10-06T10:14:48.305Z,75.24
2017-10-06T10:15:48.610Z,74.67
2017-10-06T10:16:48.443Z,73.58
2017-10-06T10:17:48.598Z,73.96
2017-10-06T10:18:48.280Z,74.06
2017-10-06T10:19:48.585Z,72.82
2017-10-06T10:20:48.268Z,72.16
2017-10-06T10:21:48.361Z,71.39
2017-10-06T10:22:48.566Z,71.68
2017-10-06T10:23:48.249Z,72.16
2017-10-06T10:24:48.242Z,72.44
2017-10-06T10:25:48.237Z,72.76
2017-10-06T10:26:48.230Z,72.48
2017-10-06T10:27:48.224Z,73.14
2017-10-06T10:28:48.217Z,73.14
2017-10-06T10:29:48.523Z,72.48
2017-10-06T10:30:48.205Z,72.67
2017-10-06T10:31:48.510Z,72.38
2017-10-06T10:32:48.505Z,72.48
2017-10-06T10:33:48.500Z,72.57
2017-10-06T10:34:48.493Z,72.67
2017-10-06T10:35:48.175Z,73.49
2017-10-06T10:36:48.169Z,74.44
2017-10-06T10:37:48.574Z,75.4
2017-10-06T10:38:48.306Z,76.06
2017-10-06T10:39:48.461Z,76.35
2017-10-06T10:40:48.454Z,76.64
2017-10-06T10:41:48.137Z,76.73
2017-10-06T10:42:48.442Z,77.11
2017-10-06T10:43:48.436Z,76.92
2017-10-06T10:44:48.119Z,77.4
2017-10-06T10:45:48.112Z,78.25
2017-10-06T10:46:48.517Z,78.64
2017-10-06T10:47:48.099Z,78.64
2017-10-06T10:48:48.406Z,79.4
2017-10-06T10:49:48.400Z,79.68
2017-10-06T10:50:48.080Z,79.59
2017-10-06T10:51:48.386Z,79.11
2017-10-06T10:52:48.068Z,78.54
2017-10-06T10:53:48.062Z,78.54
2017-10-06T10:54:48.057Z,78.44
2017-10-06T10:55:48.360Z,78.92
2017-10-06T10:56:48.358Z,78.83
2017-10-06T10:57:48.136Z,79.21
2017-10-06T10:58:48.032Z,79.68
2017-10-06T10:59:48.025Z,79.78
2017-10-06T11:00:48.022Z,79.59
2017-10-06T11:01:48.337Z,79.59
2017-10-06T11:02:48.317Z,80.26
2017-10-06T11:03:48.100Z,79.97
2017-10-06T11:04:48.453Z,80.44
2017-10-06T11:05:48.086Z,79.3
2017-10-06T11:06:48.292Z,79.78
2017-10-06T11:07:47.976Z,79.49
2017-10-06T11:08:47.967Z,79.3
2017-10-06T11:09:48.062Z,79.4
2017-10-06T11:10:48.056Z,79.06
2017-10-06T11:11:47.949Z,78.67
2017-10-06T11:12:48.254Z,78.49
2017-10-06T11:13:47.936Z,78.1
2017-10-06T11:14:47.932Z,77.72
2017-10-06T11:15:48.024Z,78.2
2017-10-06T11:16:48.331Z,78.2
2017-10-06T11:17:47.911Z,78.1
2017-10-06T11:18:47.906Z,77.62
2017-10-06T11:19:47.999Z,77.82
2017-10-06T11:20:47.892Z,76.67
2017-10-06T11:21:48.205Z,76.67
2017-10-06T11:22:48.193Z,76.48
2017-10-06T11:23:48.185Z,76.2
2017-10-06T11:24:48.068Z,75.72
2017-10-06T11:25:47.862Z,75.34
2017-10-06T11:26:47.955Z,74.96
2017-10-06T11:27:48.260Z,74.86
2017-10-06T11:28:47.843Z,75.15
2017-10-06T11:29:47.837Z,75.53
2017-10-06T11:30:48.250Z,75.43
2017-10-06T11:31:48.139Z,76.1
2017-10-06T11:32:48.232Z,75.72
2017-10-06T11:33:47.912Z,75.81
2017-10-06T11:34:47.804Z,75.53
2017-10-06T11:35:47.799Z,75.53
2017-10-06T11:36:47.944Z,74.96
2017-10-06T11:37:47.786Z,74.38
2017-10-06T11:38:47.801Z,73.81
2017-10-06T11:39:47.775Z,74.77
2017-10-06T11:40:47.868Z,74.57
2017-10-06T11:41:47.762Z,73.72
2017-10-06T11:42:47.856Z,73.43
2017-10-06T11:43:48.061Z,73.52
2017-10-06T11:44:47.745Z,73.62
2017-10-06T11:45:48.149Z,73.33
2017-10-06T11:46:48.042Z,73.52
2017-10-06T11:47:48.137Z,74.01
2017-10-06T11:48:47.818Z,73.91
2017-10-06T11:49:47.714Z,73.72
2017-10-06T11:50:48.020Z,74.1
2017-10-06T11:51:47.801Z,74.01
2017-10-06T11:52:47.693Z,74.1
2017-10-06T11:53:47.689Z,73.62
2017-10-06T11:54:47.999Z,73.62
2017-10-06T11:55:47.676Z,73.62
2017-10-06T11:56:47.980Z,74.77
2017-10-06T11:57:47.978Z,74.57
2017-10-06T11:58:48.120Z,75.62
2017-10-06T11:59:47.651Z,75.05
2017-10-06T12:00:47.957Z,74.77
2017-10-06T12:01:47.639Z,74.86
2017-10-06T12:02:48.045Z,74.77
2017-10-06T12:03:47.946Z,74.48
2017-10-06T12:04:47.621Z,74.77
2017-10-06T12:05:47.614Z,75.05
2017-10-06T12:06:47.608Z,74.96
2017-10-06T12:07:47.914Z,74.99
2017-10-06T12:08:47.913Z,74.42
2017-10-06T12:09:48.004Z,74.42
2017-10-06T12:10:47.996Z,74.04
2017-10-06T12:11:47.578Z,73.47
2017-10-06T12:12:47.572Z,74.13
2017-10-06T12:13:47.567Z,74.52
2017-10-06T12:14:47.659Z,74.42
2017-10-06T12:15:47.967Z,73.94
2017-10-06T12:16:47.859Z,74.04
2017-10-06T12:17:47.540Z,73.66
2017-10-06T12:18:47.847Z,73.56
2017-10-06T12:19:47.530Z,73.85
2017-10-06T12:20:47.835Z,74.04
2017-10-06T12:21:47.517Z,73.85
2017-10-06T12:22:47.510Z,73.56
2017-10-06T12:23:47.504Z,72.51
2017-10-06T12:24:47.599Z,72.42
2017-10-06T12:25:47.494Z,71.94
2017-10-06T12:26:47.799Z,72.61
2017-10-06T12:27:47.631Z,72.51
2017-10-06T12:28:47.474Z,72.89
2017-10-06T12:29:47.878Z,72.61
2017-10-06T12:30:47.776Z,72.61
2017-10-06T12:31:47.456Z,72.32
2017-10-06T12:32:47.549Z,72.23
2017-10-06T12:33:47.444Z,71.94
2017-10-06T12:34:47.849Z,71.84
2017-10-06T12:35:47.743Z,71.84
2017-10-06T12:36:47.424Z,71.81
2017-10-06T12:37:47.831Z,72
2017-10-06T12:38:47.412Z,72.38
2017-10-06T12:39:47.506Z,72.38
2017-10-06T12:40:47.717Z,72.67
2017-10-06T12:41:47.393Z,72.61
2017-10-06T12:42:47.701Z,73.08
2017-10-06T12:43:47.380Z,72.13
2017-10-06T12:44:47.374Z,72.13
2017-10-06T12:45:47.369Z,72.13
2017-10-06T12:46:47.367Z,72.61
2017-10-06T12:47:47.361Z,72.51
2017-10-06T12:48:47.350Z,72.51
2017-10-06T12:49:47.656Z,71.84
2017-10-06T12:50:47.337Z,72.71
2017-10-06T12:51:47.643Z,72.51
2017-10-06T12:52:47.325Z,72.51
2017-10-06T12:53:47.319Z,72.23
2017-10-06T12:54:47.463Z,72.61